Space — ZCTI8 — position and weather

sailwx.info

Track history (hours):
 
Tides and Currents Weather Stations Pressure Air Temp Water Temp Dewpoint Dewpoint Depression Visibility Wind Speed Wind Dir Waves Ship Positions

Space

Last reported at 2015-Jul-22 01:31 UTC. Time now 2015-Jul-28 13:24 UTC.
Position N 42°53' E 007°31'.

Length 45 m; draft 2.7 m.

Type: Pleasure craft. MMSI: 319917000.

Date/timePositionNaut miles runAvg speedWind from/ knotsBaromVisibWave heightAir tempDewpointWater temp
2015-Jul-22 01:31N 42°53' E 007°31'13 9.7
2015-Jul-22 00:12N 43°00' E 007°16'6 9.6
2015-Jul-21 23:33N 43°04' E 007°09'10 9.6
2015-Jul-21 22:33N 43°09' E 006°59'10 9.9
2015-Jul-21 21:33N 43°15' E 006°48'6 5.9
2015-Jul-21 20:32N 43°16' E 006°40'0 0.0
2015-Jul-21 19:32N 43°16' E 006°40'0 0.0
2015-Jul-21 18:14N 43°16' E 006°40'0 0.0
2015-Jul-21 17:26N 43°16' E 006°40'0 0.0
2015-Jul-21 16:26N 43°16' E 006°40'0 0.0
2015-Jul-21 15:32N 43°16' E 006°40'0 0.0
2015-Jul-21 14:32N 43°16' E 006°40'0 0.0
2015-Jul-21 13:26N 43°16' E 006°40'0 0.0
2015-Jul-21 12:32N 43°16' E 006°40'0 0.0
2015-Jul-21 11:32N 43°16' E 006°40'0 0.0
2015-Jul-21 10:32N 43°16' E 006°40'0 0.0
2015-Jul-21 09:32N 43°16' E 006°40'0 0.0
2015-Jul-21 08:17N 43°16' E 006°40'0 0.0
2015-Jul-21 07:29N 43°16' E 006°40'0 0.0
2015-Jul-21 06:32N 43°16' E 006°40'0 0.0
2015-Jul-21 05:32N 43°16' E 006°40'0 0.0
2015-Jul-21 04:32N 43°16' E 006°40'0 0.0
2015-Jul-21 03:32N 43°16' E 006°40'0 0.0
2015-Jul-21 02:26N 43°16' E 006°40'0 0.0
2015-Jul-21 01:32N 43°16' E 006°40'0 0.0
2015-Jul-21 00:32N 43°16' E 006°40'0 0.0
2015-Jul-20 23:32N 43°16' E 006°40'0 0.0
2015-Jul-20 22:32N 43°16' E 006°40'0 0.0
2015-Jul-20 21:29N 43°16' E 006°40'0 0.0
2015-Jul-20 20:29N 43°16' E 006°40'0 0.0
2015-Jul-20 19:20N 43°16' E 006°40'0 0.0
2015-Jul-20 18:26N 43°16' E 006°40'0 0.0
2015-Jul-20 17:20N 43°16' E 006°40'0 0.0
2015-Jul-20 16:32N 43°16' E 006°40'23 4.2
2015-Jul-20 11:08N 43°32' E 007°03'0 0.0
2015-Jul-20 10:34N 43°32' E 007°03'9 9.5
2015-Jul-20 09:33N 43°39' E 007°11'7 0.7
2015-Jul-19 23:29N 43°41' E 007°21'0 0.0
2015-Jul-19 17:08N 43°41' E 007°21'0 0.0
2015-Jul-19 13:23N 43°41' E 007°21'0 0.0
2015-Jul-19 12:32N 43°42' E 007°21'0 0.0
2015-Jul-19 11:32N 43°41' E 007°21'0 0.0
2015-Jul-18 17:31N 43°41' E 007°20'2 2.5
2015-Jul-18 16:33N 43°42' E 007°17'0 0.0
2015-Jul-18 15:33N 43°42' E 007°17'0 0.0
2015-Jul-18 14:25N 43°42' E 007°17'0 0.0
2015-Jul-18 13:29N 43°42' E 007°17'0 0.0
2015-Jul-18 12:30N 43°42' E 007°17'5 5.0
2015-Jul-18 11:33N 43°38' E 007°14'1211.5
2015-Jul-18 10:30N 43°29' E 007°02'1112.0
2015-Jul-18 09:33N 43°22' E 006°50'9 8.6
2015-Jul-18 08:30N 43°16' E 006°40'0 0.0
2015-Jul-18 07:33N 43°16' E 006°40'0 0.0
2015-Jul-18 06:33N 43°16' E 006°40'0 0.0
2015-Jul-18 05:15N 43°16' E 006°40'0 0.0
2015-Jul-18 04:33N 43°16' E 006°40'0 0.0
2015-Jul-18 03:33N 43°16' E 006°40'0 0.0
2015-Jul-18 02:33N 43°16' E 006°40'0 0.0
2015-Jul-18 01:33N 43°16' E 006°40'0 0.0
2015-Jul-18 00:33N 43°16' E 006°40'0 0.0
2015-Jul-17 23:33N 43°16' E 006°40'0 0.0
2015-Jul-17 22:27N 43°16' E 006°40'0 0.0
2015-Jul-17 21:33N 43°16' E 006°40'0 0.0
2015-Jul-17 20:33N 43°16' E 006°40'0 0.0
2015-Jul-17 19:21N 43°16' E 006°40'0 0.0
2015-Jul-17 18:24N 43°16' E 006°40'0 0.0
2015-Jul-17 17:30N 43°16' E 006°40'0 0.0
2015-Jul-17 16:18N 43°16' E 006°40'2 2.0
2015-Jul-17 15:29N 43°16' E 006°38'0 0.0
2015-Jul-17 12:32N 43°16' E 006°38'0 0.0
2015-Jul-17 11:14N 43°16' E 006°38'2 2.2
2015-Jul-17 10:31N 43°16' E 006°40'0 0.0
2015-Jul-17 09:28N 43°16' E 006°40'0 0.0
2015-Jul-17 08:19N 43°16' E 006°40'0 0.0
2015-Jul-17 07:31N 43°16' E 006°40'0 0.0
2015-Jul-17 06:25N 43°16' E 006°40'0 0.0
2015-Jul-17 05:25N 43°16' E 006°40'0 0.0
2015-Jul-17 04:25N 43°16' E 006°40'0 0.0
2015-Jul-16 15:04N 43°16' E 006°40'0 0.0
2015-Jul-16 14:25N 43°16' E 006°40'0 0.0
2015-Jul-16 12:28N 43°16' E 006°40'0 0.0
2015-Jul-16 11:25N 43°16' E 006°40'0 0.0
2015-Jul-16 10:28N 43°16' E 006°40'0 0.0
2015-Jul-16 09:31N 43°16' E 006°40'0 0.0
2015-Jul-16 08:28N 43°16' E 006°40'0 0.0
2015-Jul-16 07:28N 43°16' E 006°40'0 0.0
2015-Jul-16 06:31N 43°16' E 006°40'0 0.0
2015-Jul-16 05:31N 43°16' E 006°40'0 0.0
2015-Jul-16 04:28N 43°16' E 006°40'0 0.0
2015-Jul-16 03:31N 43°16' E 006°40'0 0.0
2015-Jul-16 02:28N 43°16' E 006°40'0 0.0
2015-Jul-16 01:31N 43°16' E 006°40'0 0.0
2015-Jul-16 00:31N 43°16' E 006°40'0 0.0
2015-Jul-15 23:34N 43°16' E 006°40'0 0.0
2015-Jul-15 22:31N 43°16' E 006°40'0 0.0
2015-Jul-15 21:31N 43°16' E 006°40'0 0.0
2015-Jul-15 20:31N 43°16' E 006°40'0 0.0
2015-Jul-15 19:34N 43°16' E 006°40'0 0.0
2015-Jul-15 18:31N 43°16' E 006°40'1 1.2
2015-Jul-15 17:33N 43°17' E 006°41'4 3.5
2015-Jul-15 16:24N 43°13' E 006°40'0 0.0
2015-Jul-15 15:30N 43°13' E 006°40'0 0.0
2015-Jul-15 14:30N 43°13' E 006°40'0 0.0
2015-Jul-15 13:30N 43°13' E 006°40'0 0.0
2015-Jul-15 12:30N 43°13' E 006°40'0 0.0
2015-Jul-15 11:33N 43°13' E 006°40'1111.2
2015-Jul-15 10:33N 43°20' E 006°52'1212.2
2015-Jul-15 09:33N 43°28' E 007°04'1212.0
2015-Jul-15 08:32N 43°38' E 007°16'5 0.8
2015-Jul-15 02:15N 43°42' E 007°19'0 0.0
2015-Jul-14 22:24N 43°42' E 007°19'0 0.0
2015-Jul-14 21:30N 43°42' E 007°19'0 0.0
2015-Jul-14 20:30N 43°42' E 007°19'0 0.0
2015-Jul-14 19:33N 43°42' E 007°19'0 0.0
2015-Jul-14 17:15N 43°42' E 007°19'0 0.0
2015-Jul-14 15:27N 43°42' E 007°19'0 0.4
2015-Jul-14 14:33N 43°42' E 007°19'1211.8
2015-Jul-14 13:33N 43°32' E 007°09'1111.4
2015-Jul-14 12:33N 43°25' E 006°57'1111.2
2015-Jul-14 11:33N 43°19' E 006°44'4 3.8
2015-Jul-14 10:32N 43°16' E 006°40'0 0.0
2015-Jul-14 09:32N 43°16' E 006°40'0 0.0
2015-Jul-14 08:32N 43°16' E 006°40'0 0.0
2015-Jul-14 07:29N 43°16' E 006°40'0 0.0
2015-Jul-14 06:32N 43°16' E 006°40'0 0.0
2015-Jul-14 05:32N 43°16' E 006°40'0 0.0
2015-Jul-14 04:32N 43°16' E 006°40'0 0.0
2015-Jul-14 03:26N 43°16' E 006°40'0 0.0
2015-Jul-14 02:32N 43°16' E 006°40'0 0.0
2015-Jul-14 01:32N 43°16' E 006°40'0 0.0
2015-Jul-14 00:32N 43°16' E 006°40'0 0.0
2015-Jul-13 23:32N 43°16' E 006°40'0 0.0
2015-Jul-13 22:32N 43°16' E 006°40'0 0.0
2015-Jul-13 21:26N 43°16' E 006°40'0 0.0
2015-Jul-13 20:29N 43°16' E 006°40'0 0.0
2015-Jul-13 19:26N 43°16' E 006°40'0 0.0
2015-Jul-13 18:32N 43°16' E 006°40'0 0.0
2015-Jul-13 17:14N 43°16' E 006°40'0 0.0
2015-Jul-13 16:29N 43°16' E 006°40'0 0.4
2015-Jul-13 15:33N 43°17' E 006°40'3 3.0
2015-Jul-13 14:32N 43°14' E 006°40'0 0.0
2015-Jul-13 13:29N 43°14' E 006°40'0 0.0
2015-Jul-13 12:30N 43°14' E 006°40'0 0.0
2015-Jul-13 11:33N 43°14' E 006°40'3 2.7
2015-Jul-13 10:32N 43°16' E 006°40'0 0.0
2015-Jul-13 09:23N 43°16' E 006°40'0 0.0
2015-Jul-13 08:32N 43°16' E 006°40'0 0.0
2015-Jul-13 07:29N 43°16' E 006°40'0 0.0
2015-Jul-13 06:32N 43°16' E 006°40'0 0.0
2015-Jul-13 05:23N 43°16' E 006°40'0 0.0
2015-Jul-13 04:32N 43°16' E 006°40'0 0.0
2015-Jul-13 03:29N 43°16' E 006°40'0 0.0
2015-Jul-13 02:32N 43°16' E 006°40'0 0.0
2015-Jul-13 01:32N 43°16' E 006°40'0 0.0
2015-Jul-13 00:32N 43°16' E 006°40'0 0.0
2015-Jul-12 23:32N 43°16' E 006°40'0 0.0
2015-Jul-12 22:32N 43°16' E 006°40'0 0.0
2015-Jul-12 21:29N 43°16' E 006°40'0 0.0
2015-Jul-12 20:32N 43°16' E 006°40'0 0.0
2015-Jul-12 19:32N 43°16' E 006°40'0 0.0
2015-Jul-12 18:20N 43°16' E 006°40'0 0.0
2015-Jul-12 17:28N 43°16' E 006°40'3 2.8
2015-Jul-12 16:33N 43°14' E 006°40'0 0.1
2015-Jul-12 15:33N 43°14' E 006°40'0 0.0
2015-Jul-12 14:34N 43°14' E 006°40'0 0.0
2015-Jul-12 13:31N 43°14' E 006°40'0 0.0
2015-Jul-12 12:33N 43°14' E 006°40'0 0.0
2015-Jul-12 11:33N 43°14' E 006°40'3 2.7
2015-Jul-12 10:33N 43°16' E 006°40'0 0.0
2015-Jul-12 09:33N 43°16' E 006°40'0 0.0
2015-Jul-12 08:31N 43°16' E 006°40'0 0.0
2015-Jul-12 07:33N 43°16' E 006°40'0 0.0
2015-Jul-12 06:33N 43°16' E 006°40'0 0.0
2015-Jul-12 05:33N 43°16' E 006°40'0 0.0
2015-Jul-12 04:33N 43°16' E 006°40'0 0.0
2015-Jul-12 03:33N 43°16' E 006°40'0 0.0
2015-Jul-12 02:33N 43°16' E 006°40'0 0.0
2015-Jul-12 01:33N 43°16' E 006°40'  
Track history (hours):
 
Tides and Currents Weather Stations Pressure Air Temp Water Temp Dewpoint Dewpoint Depression Visibility Wind Speed Wind Dir Waves Ship Positions

Space

Last reported at 2015-Jul-22 01:31 UTC. Time now 2015-Jul-28 13:24 UTC.
Position N 42°53' E 007°31'.

Length 45 m; draft 2.7 m.

Type: Pleasure craft. MMSI: 319917000.

Date/timePositionNaut miles runAvg speedWind from/ knotsBaromVisibWave heightAir tempDewpointWater temp
2015-Jul-22 01:31N 42°53' E 007°31'13 9.7
2015-Jul-22 00:12N 43°00' E 007°16'6 9.6
2015-Jul-21 23:33N 43°04' E 007°09'10 9.6
2015-Jul-21 22:33N 43°09' E 006°59'10 9.9
2015-Jul-21 21:33N 43°15' E 006°48'6 5.9
2015-Jul-21 20:32N 43°16' E 006°40'0 0.0
2015-Jul-21 19:32N 43°16' E 006°40'0 0.0
2015-Jul-21 18:14N 43°16' E 006°40'0 0.0
2015-Jul-21 17:26N 43°16' E 006°40'0 0.0
2015-Jul-21 16:26N 43°16' E 006°40'0 0.0
2015-Jul-21 15:32N 43°16' E 006°40'0 0.0
2015-Jul-21 14:32N 43°16' E 006°40'0 0.0
2015-Jul-21 13:26N 43°16' E 006°40'0 0.0
2015-Jul-21 12:32N 43°16' E 006°40'0 0.0
2015-Jul-21 11:32N 43°16' E 006°40'0 0.0
2015-Jul-21 10:32N 43°16' E 006°40'0 0.0
2015-Jul-21 09:32N 43°16' E 006°40'0 0.0
2015-Jul-21 08:17N 43°16' E 006°40'0 0.0
2015-Jul-21 07:29N 43°16' E 006°40'0 0.0
2015-Jul-21 06:32N 43°16' E 006°40'0 0.0
2015-Jul-21 05:32N 43°16' E 006°40'0 0.0
2015-Jul-21 04:32N 43°16' E 006°40'0 0.0
2015-Jul-21 03:32N 43°16' E 006°40'0 0.0
2015-Jul-21 02:26N 43°16' E 006°40'0 0.0
2015-Jul-21 01:32N 43°16' E 006°40'0 0.0
2015-Jul-21 00:32N 43°16' E 006°40'0 0.0
2015-Jul-20 23:32N 43°16' E 006°40'0 0.0
2015-Jul-20 22:32N 43°16' E 006°40'0 0.0
2015-Jul-20 21:29N 43°16' E 006°40'0 0.0
2015-Jul-20 20:29N 43°16' E 006°40'0 0.0
2015-Jul-20 19:20N 43°16' E 006°40'0 0.0
2015-Jul-20 18:26N 43°16' E 006°40'0 0.0
2015-Jul-20 17:20N 43°16' E 006°40'0 0.0
2015-Jul-20 16:32N 43°16' E 006°40'23 4.2
2015-Jul-20 11:08N 43°32' E 007°03'0 0.0
2015-Jul-20 10:34N 43°32' E 007°03'9 9.5
2015-Jul-20 09:33N 43°39' E 007°11'7 0.7
2015-Jul-19 23:29N 43°41' E 007°21'0 0.0
2015-Jul-19 17:08N 43°41' E 007°21'0 0.0
2015-Jul-19 13:23N 43°41' E 007°21'0 0.0
2015-Jul-19 12:32N 43°42' E 007°21'0 0.0
2015-Jul-19 11:32N 43°41' E 007°21'0 0.0
2015-Jul-18 17:31N 43°41' E 007°20'2 2.5
2015-Jul-18 16:33N 43°42' E 007°17'0 0.0
2015-Jul-18 15:33N 43°42' E 007°17'0 0.0
2015-Jul-18 14:25N 43°42' E 007°17'0 0.0
2015-Jul-18 13:29N 43°42' E 007°17'0 0.0
2015-Jul-18 12:30N 43°42' E 007°17'5 5.0
2015-Jul-18 11:33N 43°38' E 007°14'1211.5
2015-Jul-18 10:30N 43°29' E 007°02'1112.0
2015-Jul-18 09:33N 43°22' E 006°50'9 8.6
2015-Jul-18 08:30N 43°16' E 006°40'0 0.0
2015-Jul-18 07:33N 43°16' E 006°40'0 0.0
2015-Jul-18 06:33N 43°16' E 006°40'0 0.0
2015-Jul-18 05:15N 43°16' E 006°40'0 0.0
2015-Jul-18 04:33N 43°16' E 006°40'0 0.0
2015-Jul-18 03:33N 43°16' E 006°40'0 0.0
2015-Jul-18 02:33N 43°16' E 006°40'0 0.0
2015-Jul-18 01:33N 43°16' E 006°40'0 0.0
2015-Jul-18 00:33N 43°16' E 006°40'0 0.0
2015-Jul-17 23:33N 43°16' E 006°40'0 0.0
2015-Jul-17 22:27N 43°16' E 006°40'0 0.0
2015-Jul-17 21:33N 43°16' E 006°40'0 0.0
2015-Jul-17 20:33N 43°16' E 006°40'0 0.0
2015-Jul-17 19:21N 43°16' E 006°40'0 0.0
2015-Jul-17 18:24N 43°16' E 006°40'0 0.0
2015-Jul-17 17:30N 43°16' E 006°40'0 0.0
2015-Jul-17 16:18N 43°16' E 006°40'2 2.0
2015-Jul-17 15:29N 43°16' E 006°38'0 0.0
2015-Jul-17 12:32N 43°16' E 006°38'0 0.0
2015-Jul-17 11:14N 43°16' E 006°38'2 2.2
2015-Jul-17 10:31N 43°16' E 006°40'0 0.0
2015-Jul-17 09:28N 43°16' E 006°40'0 0.0
2015-Jul-17 08:19N 43°16' E 006°40'0 0.0
2015-Jul-17 07:31N 43°16' E 006°40'0 0.0
2015-Jul-17 06:25N 43°16' E 006°40'0 0.0
2015-Jul-17 05:25N 43°16' E 006°40'0 0.0
2015-Jul-17 04:25N 43°16' E 006°40'0 0.0
2015-Jul-16 15:04N 43°16' E 006°40'0 0.0
2015-Jul-16 14:25N 43°16' E 006°40'0 0.0
2015-Jul-16 12:28N 43°16' E 006°40'0 0.0
2015-Jul-16 11:25N 43°16' E 006°40'0 0.0
2015-Jul-16 10:28N 43°16' E 006°40'0 0.0
2015-Jul-16 09:31N 43°16' E 006°40'0 0.0
2015-Jul-16 08:28N 43°16' E 006°40'0 0.0
2015-Jul-16 07:28N 43°16' E 006°40'0 0.0
2015-Jul-16 06:31N 43°16' E 006°40'0 0.0
2015-Jul-16 05:31N 43°16' E 006°40'0 0.0
2015-Jul-16 04:28N 43°16' E 006°40'0 0.0
2015-Jul-16 03:31N 43°16' E 006°40'0 0.0
2015-Jul-16 02:28N 43°16' E 006°40'0 0.0
2015-Jul-16 01:31N 43°16' E 006°40'0 0.0
2015-Jul-16 00:31N 43°16' E 006°40'0 0.0
2015-Jul-15 23:34N 43°16' E 006°40'0 0.0
2015-Jul-15 22:31N 43°16' E 006°40'0 0.0
2015-Jul-15 21:31N 43°16' E 006°40'0 0.0
2015-Jul-15 20:31N 43°16' E 006°40'0 0.0
2015-Jul-15 19:34N 43°16' E 006°40'0 0.0
2015-Jul-15 18:31N 43°16' E 006°40'1 1.2
2015-Jul-15 17:33N 43°17' E 006°41'4 3.5
2015-Jul-15 16:24N 43°13' E 006°40'0 0.0
2015-Jul-15 15:30N 43°13' E 006°40'0 0.0
2015-Jul-15 14:30N 43°13' E 006°40'0 0.0
2015-Jul-15 13:30N 43°13' E 006°40'0 0.0
2015-Jul-15 12:30N 43°13' E 006°40'0 0.0
2015-Jul-15 11:33N 43°13' E 006°40'1111.2
2015-Jul-15 10:33N 43°20' E 006°52'1212.2
2015-Jul-15 09:33N 43°28' E 007°04'1212.0
2015-Jul-15 08:32N 43°38' E 007°16'5 0.8
2015-Jul-15 02:15N 43°42' E 007°19'0 0.0
2015-Jul-14 22:24N 43°42' E 007°19'0 0.0
2015-Jul-14 21:30N 43°42' E 007°19'0 0.0
2015-Jul-14 20:30N 43°42' E 007°19'0 0.0
2015-Jul-14 19:33N 43°42' E 007°19'0 0.0
2015-Jul-14 17:15N 43°42' E 007°19'0 0.0
2015-Jul-14 15:27N 43°42' E 007°19'0 0.4
2015-Jul-14 14:33N 43°42' E 007°19'1211.8
2015-Jul-14 13:33N 43°32' E 007°09'1111.4
2015-Jul-14 12:33N 43°25' E 006°57'1111.2
2015-Jul-14 11:33N 43°19' E 006°44'4 3.8
2015-Jul-14 10:32N 43°16' E 006°40'0 0.0
2015-Jul-14 09:32N 43°16' E 006°40'0 0.0
2015-Jul-14 08:32N 43°16' E 006°40'0 0.0
2015-Jul-14 07:29N 43°16' E 006°40'0 0.0
2015-Jul-14 06:32N 43°16' E 006°40'0 0.0
2015-Jul-14 05:32N 43°16' E 006°40'0 0.0
2015-Jul-14 04:32N 43°16' E 006°40'0 0.0
2015-Jul-14 03:26N 43°16' E 006°40'0 0.0
2015-Jul-14 02:32N 43°16' E 006°40'0 0.0
2015-Jul-14 01:32N 43°16' E 006°40'0 0.0
2015-Jul-14 00:32N 43°16' E 006°40'0 0.0
2015-Jul-13 23:32N 43°16' E 006°40'0 0.0
2015-Jul-13 22:32N 43°16' E 006°40'0 0.0
2015-Jul-13 21:26N 43°16' E 006°40'0 0.0
2015-Jul-13 20:29N 43°16' E 006°40'0 0.0
2015-Jul-13 19:26N 43°16' E 006°40'0 0.0
2015-Jul-13 18:32N 43°16' E 006°40'0 0.0
2015-Jul-13 17:14N 43°16' E 006°40'0 0.0
2015-Jul-13 16:29N 43°16' E 006°40'0 0.4
2015-Jul-13 15:33N 43°17' E 006°40'3 3.0
2015-Jul-13 14:32N 43°14' E 006°40'0 0.0
2015-Jul-13 13:29N 43°14' E 006°40'0 0.0
2015-Jul-13 12:30N 43°14' E 006°40'0 0.0
2015-Jul-13 11:33N 43°14' E 006°40'3 2.7
2015-Jul-13 10:32N 43°16' E 006°40'0 0.0
2015-Jul-13 09:23N 43°16' E 006°40'0 0.0
2015-Jul-13 08:32N 43°16' E 006°40'0 0.0
2015-Jul-13 07:29N 43°16' E 006°40'0 0.0
2015-Jul-13 06:32N 43°16' E 006°40'0 0.0
2015-Jul-13 05:23N 43°16' E 006°40'0 0.0
2015-Jul-13 04:32N 43°16' E 006°40'0 0.0
2015-Jul-13 03:29N 43°16' E 006°40'0 0.0
2015-Jul-13 02:32N 43°16' E 006°40'0 0.0
2015-Jul-13 01:32N 43°16' E 006°40'0 0.0
2015-Jul-13 00:32N 43°16' E 006°40'0 0.0
2015-Jul-12 23:32N 43°16' E 006°40'0 0.0
2015-Jul-12 22:32N 43°16' E 006°40'0 0.0
2015-Jul-12 21:29N 43°16' E 006°40'0 0.0
2015-Jul-12 20:32N 43°16' E 006°40'0 0.0
2015-Jul-12 19:32N 43°16' E 006°40'0 0.0
2015-Jul-12 18:20N 43°16' E 006°40'0 0.0
2015-Jul-12 17:28N 43°16' E 006°40'3 2.8
2015-Jul-12 16:33N 43°14' E 006°40'0 0.1
2015-Jul-12 15:33N 43°14' E 006°40'0 0.0
2015-Jul-12 14:34N 43°14' E 006°40'0 0.0
2015-Jul-12 13:31N 43°14' E 006°40'0 0.0
2015-Jul-12 12:33N 43°14' E 006°40'0 0.0
2015-Jul-12 11:33N 43°14' E 006°40'3 2.7
2015-Jul-12 10:33N 43°16' E 006°40'0 0.0
2015-Jul-12 09:33N 43°16' E 006°40'0 0.0
2015-Jul-12 08:31N 43°16' E 006°40'0 0.0
2015-Jul-12 07:33N 43°16' E 006°40'0 0.0
2015-Jul-12 06:33N 43°16' E 006°40'0 0.0
2015-Jul-12 05:33N 43°16' E 006°40'0 0.0
2015-Jul-12 04:33N 43°16' E 006°40'0 0.0
2015-Jul-12 03:33N 43°16' E 006°40'0 0.0
2015-Jul-12 02:33N 43°16' E 006°40'0 0.0
2015-Jul-12 01:33N 43°16' E 006°40'  

Dump ship's entire track history